createdAt,value
2023-04-14T00:00:16.317Z,50.07
2023-04-14T00:02:44.601Z,49.98
2023-04-14T00:05:12.986Z,49.87
2023-04-14T00:07:43.227Z,50.26
2023-04-14T00:10:12.187Z,50.18
2023-04-14T00:12:40.570Z,50.23
2023-04-14T00:15:09.840Z,50.34
2023-04-14T00:17:38.083Z,50.32
2023-04-14T00:20:07.212Z,50.39
2023-04-14T00:22:36.141Z,50.46
2023-04-14T00:25:06.619Z,50.33
2023-04-14T00:27:34.986Z,50.52
2023-04-14T00:30:04.027Z,50.40
2023-04-14T00:32:31.943Z,50.69
2023-04-14T00:35:03.429Z,50.68
2023-04-14T00:37:32.383Z,50.69
2023-04-14T00:40:00.506Z,50.88
2023-04-14T00:42:29.979Z,50.57
2023-04-14T00:44:58.334Z,50.62
2023-04-14T00:47:27.991Z,50.71
2023-04-14T00:49:56.310Z,49.84
2023-04-14T00:52:26.990Z,50.52
2023-04-14T00:54:55.006Z,50.66
2023-04-14T00:57:23.478Z,50.25
2023-04-14T00:59:54.125Z,50.37
2023-04-14T01:02:22.508Z,50.88
2023-04-14T01:04:54.613Z,50.43
2023-04-14T01:07:24.852Z,50.64
2023-04-14T01:09:54.350Z,50.96
2023-04-14T01:12:35.018Z,50.63
2023-04-14T01:15:13.375Z,51.04
2023-04-14T01:17:47.460Z,51.25
2023-04-14T01:20:24.285Z,50.77
2023-04-14T01:22:59.560Z,51.04
2023-04-14T01:25:55.979Z,50.82
2023-04-14T01:28:44.360Z,50.53
2023-04-14T01:31:25.206Z,51.09
2023-04-14T01:33:59.379Z,50.91
2023-04-14T01:36:35.867Z,50.94
2023-04-14T01:39:10.153Z,51.38
2023-04-14T01:41:40.530Z,51.17
2023-04-14T01:44:11.875Z,51.45
2023-04-14T01:46:44.176Z,51.44
2023-04-14T01:49:14.183Z,50.89
2023-04-14T01:51:44.929Z,50.86
2023-04-14T01:54:16.212Z,51.40
2023-04-14T01:56:45.124Z,51.40
2023-04-14T01:59:14.791Z,51.23
2023-04-14T02:01:45.909Z,50.97
2023-04-14T02:04:15.675Z,51.25
2023-04-14T02:06:44.489Z,51.14
2023-04-14T02:09:14.175Z,51.29
2023-04-14T02:11:43.424Z,50.44
2023-04-14T02:14:13.038Z,51.46
2023-04-14T02:16:42.837Z,51.06
2023-04-14T02:19:13.372Z,51.46
2023-04-14T02:21:43.347Z,51.95
2023-04-14T02:24:11.431Z,51.57
2023-04-14T02:26:46.057Z,51.83
2023-04-14T02:29:16.521Z,51.71
2023-04-14T02:31:47.781Z,51.59
2023-04-14T02:34:24.042Z,52.23
2023-04-14T02:36:55.896Z,52.46
2023-04-14T02:39:31.249Z,51.99
2023-04-14T02:42:06.447Z,52.29
2023-04-14T02:44:40.067Z,52.81
2023-04-14T02:47:11.928Z,52.54
2023-04-14T02:49:44.500Z,52.95
2023-04-14T02:52:18.320Z,52.82
2023-04-14T02:54:49.238Z,52.29
2023-04-14T02:57:17.582Z,52.10
2023-04-14T02:59:48.607Z,52.91
2023-04-14T03:02:18.102Z,51.95
2023-04-14T03:04:47.887Z,51.97
2023-04-14T03:07:16.451Z,51.80
2023-04-14T03:09:44.662Z,52.32
2023-04-14T03:12:14.773Z,52.14
2023-04-14T03:14:44.729Z,52.31
2023-04-14T03:17:14.845Z,51.72
2023-04-14T03:19:48.724Z,52.61
2023-04-14T03:22:19.730Z,52.50
2023-04-14T03:24:48.907Z,52.60
2023-04-14T03:27:22.076Z,51.86
2023-04-14T03:29:55.743Z,52.93
2023-04-14T03:32:26.918Z,52.54
2023-04-14T03:35:01.945Z,52.36
2023-04-14T03:37:34.676Z,52.73
2023-04-14T03:40:06.827Z,53.22
2023-04-14T03:42:36.860Z,53.14
2023-04-14T03:45:05.724Z,53.05
2023-04-14T03:47:34.404Z,52.32
2023-04-14T03:50:06.177Z,52.62
2023-04-14T03:52:38.525Z,52.57
2023-04-14T03:55:09.880Z,52.67
2023-04-14T03:57:41.561Z,52.78
2023-04-14T04:00:11.490Z,52.53
2023-04-14T04:02:40.724Z,52.55
2023-04-14T04:05:11.721Z,52.89
2023-04-14T04:07:42.699Z,53.01
2023-04-14T04:10:14.323Z,53.17
2023-04-14T04:12:44.300Z,53.24
2023-04-14T04:15:12.911Z,53.25
2023-04-14T04:17:43.225Z,53.04
2023-04-14T04:20:15.670Z,52.55
2023-04-14T04:22:47.473Z,53.29
2023-04-14T04:25:16.798Z,53.18
2023-04-14T04:27:45.660Z,52.61
2023-04-14T04:30:17.108Z,53.65
2023-04-14T04:32:45.650Z,52.81
2023-04-14T04:35:33.706Z,53.45
2023-04-14T04:38:03.986Z,53.25
2023-04-14T04:40:38.179Z,53.40
2023-04-14T04:43:06.387Z,53.61
2023-04-14T04:46:01.871Z,53.31
2023-04-14T04:48:30.039Z,53.93
2023-04-14T04:50:57.931Z,54.04
2023-04-14T04:53:27.939Z,54.54
2023-04-14T04:55:57.143Z,55.13
2023-04-14T04:58:25.193Z,55.15
2023-04-14T05:00:55.261Z,54.92
2023-04-14T05:03:23.473Z,55.37
2023-04-14T05:05:51.781Z,55.20
2023-04-14T05:08:20.382Z,55.30
2023-04-14T05:10:49.775Z,55.36
2023-04-14T05:13:17.937Z,55.50
2023-04-14T05:15:46.543Z,55.68
2023-04-14T05:18:14.737Z,55.96
2023-04-14T05:20:43.096Z,55.46
2023-04-14T05:23:11.855Z,55.29
2023-04-14T05:25:39.946Z,55.82
2023-04-14T05:28:09.737Z,55.63
2023-04-14T05:30:38.220Z,55.93
2023-04-14T05:33:06.195Z,56.45
2023-04-14T05:35:34.488Z,55.56
2023-04-14T05:38:02.962Z,55.65
2023-04-14T05:40:30.941Z,55.70
2023-04-14T05:42:59.170Z,55.85
2023-04-14T05:45:29.286Z,56.59
2023-04-14T05:47:57.302Z,56.56
2023-04-14T05:50:26.066Z,56.38
2023-04-14T05:52:54.597Z,56.26
2023-04-14T05:55:23.161Z,56.52
2023-04-14T05:57:51.338Z,55.94
2023-04-14T06:00:20.645Z,55.94
2023-04-14T06:02:50.230Z,56.02
2023-04-14T06:05:18.732Z,55.81
2023-04-14T06:07:47.647Z,55.59
2023-04-14T06:10:16.023Z,55.86
2023-04-14T06:12:44.739Z,55.05
2023-04-14T06:15:13.512Z,55.40
2023-04-14T06:17:41.930Z,55.21
2023-04-14T06:20:12.702Z,54.81
2023-04-14T06:22:41.452Z,54.93
2023-04-14T06:25:11.128Z,54.74
2023-04-14T06:27:41.621Z,55.74
2023-04-14T06:30:10.699Z,55.52
2023-04-14T06:32:38.837Z,55.51
2023-04-14T06:35:16.433Z,55.17
2023-04-14T06:37:52.109Z,55.47
2023-04-14T06:40:20.872Z,55.37
2023-04-14T06:42:49.042Z,55.77
2023-04-14T06:45:17.308Z,55.54
2023-04-14T06:47:45.947Z,55.10
2023-04-14T06:50:14.589Z,55.22
2023-04-14T06:52:42.849Z,55.15
2023-04-14T06:55:12.639Z,55.44
2023-04-14T06:57:41.464Z,54.84
2023-04-14T07:00:10.717Z,54.67
2023-04-14T07:02:39.384Z,54.77
2023-04-14T07:05:08.460Z,54.63
2023-04-14T07:07:37.241Z,54.62
2023-04-14T07:10:06.450Z,54.44
2023-04-14T07:12:35.794Z,54.75
2023-04-14T07:15:03.765Z,54.16
2023-04-14T07:17:32.554Z,54.04
2023-04-14T07:20:00.528Z,53.92
2023-04-14T07:22:28.669Z,53.84
2023-04-14T07:24:57.377Z,52.88
2023-04-14T07:27:28.429Z,53.11
2023-04-14T07:29:59.063Z,52.21
2023-04-14T07:32:27.066Z,52.48
2023-04-14T07:34:55.882Z,52.37
2023-04-14T07:37:26.338Z,52.40
2023-04-14T07:39:54.471Z,52.03
2023-04-14T07:42:22.492Z,52.08
2023-04-14T07:44:50.882Z,52.10
2023-04-14T07:47:20.461Z,52.68
2023-04-14T07:49:48.669Z,52.55
2023-04-14T07:52:17.447Z,51.35
2023-04-14T07:54:45.908Z,51.68
2023-04-14T07:57:14.211Z,51.08
2023-04-14T07:59:43.595Z,50.40
2023-04-14T08:02:11.867Z,49.94
2023-04-14T08:04:41.357Z,50.22
2023-04-14T08:07:10.043Z,49.29
2023-04-14T08:09:38.157Z,49.40
2023-04-14T08:12:06.437Z,49.70
2023-04-14T08:14:35.655Z,49.48
2023-04-14T08:17:03.644Z,49.02
2023-04-14T08:19:33.916Z,47.87
2023-04-14T08:22:03.863Z,47.55
2023-04-14T08:24:32.085Z,47.58
2023-04-14T08:27:02.015Z,47.33
2023-04-14T08:29:30.823Z,47.50
2023-04-14T08:31:59.068Z,45.87
2023-04-14T08:34:28.559Z,46.48
2023-04-14T08:36:58.130Z,46.41
2023-04-14T08:39:27.978Z,45.98
2023-04-14T08:41:58.892Z,44.60
2023-04-14T08:44:26.904Z,45.13
2023-04-14T08:46:57.030Z,45.08
2023-04-14T08:49:33.726Z,45.29
2023-04-14T08:52:04.502Z,45.06
2023-04-14T08:54:35.034Z,45.08
2023-04-14T08:57:05.016Z,45.16
2023-04-14T08:59:33.447Z,44.79
2023-04-14T09:02:02.743Z,43.70
2023-04-14T09:04:30.950Z,43.96
2023-04-14T09:06:59.564Z,43.97
2023-04-14T09:09:29.179Z,43.28
2023-04-14T09:11:58.706Z,45.38
2023-04-14T09:14:28.033Z,44.10
2023-04-14T09:16:57.253Z,43.02
2023-04-14T09:19:27.153Z,44.14
2023-04-14T09:21:56.244Z,43.42
2023-04-14T09:24:31.818Z,43.07
2023-04-14T09:27:03.627Z,43.97
2023-04-14T09:29:33.415Z,43.53
2023-04-14T09:32:01.511Z,43.12
2023-04-14T09:34:29.761Z,43.06
2023-04-14T09:37:03.463Z,42.69
2023-04-14T09:39:32.685Z,43.33
2023-04-14T09:42:02.847Z,43.56
2023-04-14T09:44:31.171Z,43.02
2023-04-14T09:47:00.800Z,42.25
2023-04-14T09:49:29.228Z,43.77
2023-04-14T09:52:04.330Z,43.25
2023-04-14T09:54:32.445Z,42.12
2023-04-14T09:57:02.735Z,43.27
2023-04-14T09:59:35.529Z,42.17
2023-04-14T10:02:07.368Z,41.17
2023-04-14T10:04:37.067Z,41.81
2023-04-14T10:07:07.421Z,43.20
2023-04-14T10:09:39.032Z,41.89
2023-04-14T10:12:13.453Z,42.06
2023-04-14T10:14:42.693Z,42.47
2023-04-14T10:17:11.432Z,41.90
2023-04-14T10:19:39.824Z,42.08
2023-04-14T10:22:08.219Z,41.76
2023-04-14T10:24:36.776Z,41.48
2023-04-14T10:27:06.580Z,41.58
2023-04-14T10:29:36.117Z,41.83
2023-04-14T10:32:05.441Z,41.74
2023-04-14T10:34:34.771Z,41.54
2023-04-14T10:37:15.741Z,41.67
2023-04-14T10:39:44.424Z,42.20
2023-04-14T10:42:12.242Z,41.64
2023-04-14T10:44:41.560Z,41.94
2023-04-14T10:47:10.417Z,42.44
2023-04-14T10:49:40.284Z,41.05
2023-04-14T10:52:33.661Z,41.53
2023-04-14T10:55:08.861Z,41.78
2023-04-14T10:57:43.629Z,42.09
2023-04-14T11:00:31.818Z,41.40
2023-04-14T11:03:05.025Z,40.50
2023-04-14T11:05:34.082Z,40.29
2023-04-14T11:08:03.379Z,40.19
2023-04-14T11:10:34.864Z,40.62
2023-04-14T11:13:04.520Z,40.08
2023-04-14T11:15:53.041Z,40.81
2023-04-14T11:18:32.361Z,39.37
2023-04-14T11:21:05.322Z,39.88
2023-04-14T11:23:34.172Z,40.67
2023-04-14T11:26:02.397Z,40.19
2023-04-14T11:28:31.792Z,39.69
2023-04-14T11:31:02.299Z,39.61
2023-04-14T11:33:31.713Z,39.01
2023-04-14T11:36:00.215Z,39.17
2023-04-14T11:38:28.859Z,38.96
2023-04-14T11:40:57.538Z,39.44
2023-04-14T11:43:26.176Z,38.95
2023-04-14T11:45:54.841Z,38.60
2023-04-14T11:48:24.376Z,39.03
2023-04-14T11:50:52.260Z,39.49
2023-04-14T11:53:21.269Z,37.89
2023-04-14T11:55:50.560Z,37.55
2023-04-14T11:58:22.689Z,37.54
2023-04-14T12:00:53.075Z,38.44
2023-04-14T12:03:27.790Z,37.73
2023-04-14T12:08:53.053Z,38.36
2023-04-14T12:11:21.571Z,37.42
2023-04-14T12:13:51.135Z,37.25
2023-04-14T12:16:19.334Z,38.24
2023-04-14T12:18:49.166Z,37.10
2023-04-14T12:21:21.313Z,37.62
2023-04-14T12:23:50.284Z,36.91
2023-04-14T12:26:19.558Z,37.29
2023-04-14T12:28:56.717Z,37.24
2023-04-14T12:31:30.101Z,36.83
2023-04-14T12:34:04.148Z,37.29
2023-04-14T12:36:48.801Z,37.14
2023-04-14T12:39:18.318Z,37.16
2023-04-14T12:41:46.982Z,37.52
2023-04-14T12:44:16.749Z,37.38
2023-04-14T12:46:50.341Z,36.89
2023-04-14T12:49:33.915Z,37.05
2023-04-14T12:52:02.509Z,36.69
2023-04-14T12:54:48.871Z,37.08
2023-04-14T12:57:17.405Z,36.88
2023-04-14T12:59:45.933Z,36.95
2023-04-14T13:02:14.336Z,37.03
2023-04-14T13:04:44.705Z,36.63
2023-04-14T13:07:12.814Z,36.31
2023-04-14T13:09:42.656Z,36.58
2023-04-14T13:12:10.988Z,37.30
2023-04-14T13:14:39.422Z,36.88
2023-04-14T13:17:07.964Z,37.08
2023-04-14T13:19:36.520Z,36.99
2023-04-14T13:22:06.216Z,37.28
2023-04-14T13:24:34.416Z,37.50
2023-04-14T13:27:03.167Z,37.26
2023-04-14T13:29:32.983Z,36.77
2023-04-14T13:32:01.109Z,37.19
2023-04-14T13:34:29.886Z,37.26
2023-04-14T13:36:58.150Z,37.41
2023-04-14T13:39:28.028Z,37.11
2023-04-14T13:41:56.218Z,36.67
2023-04-14T13:44:24.284Z,37.13
2023-04-14T13:46:52.763Z,37.33
2023-04-14T13:49:20.942Z,37.01
2023-04-14T13:51:48.745Z,37.42
2023-04-14T13:54:16.831Z,37.42
2023-04-14T13:56:46.693Z,37.50
2023-04-14T13:59:16.223Z,36.84
2023-04-14T14:01:44.417Z,36.52
2023-04-14T14:04:12.894Z,36.35
2023-04-14T14:06:41.319Z,36.40
2023-04-14T14:09:09.655Z,36.35
2023-04-14T14:11:42.434Z,36.69
2023-04-14T14:14:12.892Z,36.55
2023-04-14T14:16:41.130Z,36.95
2023-04-14T14:19:11.388Z,36.69
2023-04-14T14:21:39.580Z,36.77
2023-04-14T14:24:07.753Z,36.96
2023-04-14T14:26:36.101Z,37.20
2023-04-14T14:29:04.431Z,37.15
2023-04-14T14:31:34.653Z,37.01
2023-04-14T14:34:03.126Z,36.87
2023-04-14T14:36:31.743Z,37.19
2023-04-14T14:38:59.725Z,36.88
2023-04-14T14:41:28.330Z,36.71
2023-04-14T14:43:56.567Z,36.96
2023-04-14T14:46:24.832Z,37.37
2023-04-14T14:48:54.773Z,37.25
2023-04-14T14:51:24.092Z,37.38
2023-04-14T14:53:57.169Z,37.54
2023-04-14T14:56:29.874Z,37.15
2023-04-14T14:58:58.130Z,37.22
2023-04-14T15:01:26.413Z,37.02
2023-04-14T15:03:56.590Z,37.06
2023-04-14T15:06:24.669Z,37.06
2023-04-14T15:08:52.725Z,36.50
2023-04-14T15:11:21.553Z,36.29
2023-04-14T15:13:49.689Z,36.58
2023-04-14T15:16:17.820Z,36.19
2023-04-14T15:18:46.022Z,36.77
2023-04-14T15:21:15.508Z,37.17
2023-04-14T15:23:45.698Z,36.95
2023-04-14T15:26:14.620Z,36.62
2023-04-14T15:28:42.534Z,37.19
2023-04-14T15:31:10.675Z,37.12
2023-04-14T15:33:38.983Z,37.98
2023-04-14T15:36:07.996Z,38.14
2023-04-14T15:38:39.317Z,38.07
2023-04-14T15:41:07.455Z,38.43
2023-04-14T15:43:35.490Z,38.53
2023-04-14T15:46:04.216Z,38.09
2023-04-14T15:48:32.355Z,38.15
2023-04-14T15:51:00.532Z,38.56
2023-04-14T15:53:28.882Z,38.20
2023-04-14T15:55:58.597Z,38.23
2023-04-14T15:58:27.411Z,38.43
2023-04-14T16:00:55.788Z,38.02
2023-04-14T16:03:24.253Z,37.68
2023-04-14T16:06:02.274Z,37.88
2023-04-14T16:08:30.522Z,37.71
2023-04-14T16:11:00.676Z,37.44
2023-04-14T16:13:29.094Z,37.81
2023-04-14T16:15:58.530Z,38.13
2023-04-14T16:18:26.724Z,37.55
2023-04-14T16:20:56.154Z,37.53
2023-04-14T16:23:24.548Z,36.82
2023-04-14T16:25:52.456Z,36.85
2023-04-14T16:28:23.373Z,37.26
2023-04-14T16:30:51.580Z,37.29
2023-04-14T16:33:19.489Z,37.71
2023-04-14T16:35:47.767Z,37.37
2023-04-14T16:38:15.913Z,37.16
2023-04-14T16:40:44.479Z,37.15
2023-04-14T16:43:14.377Z,37.35
2023-04-14T16:45:43.743Z,37.23
2023-04-14T16:48:11.750Z,37.45
2023-04-14T16:50:40.999Z,37.44
2023-04-14T16:53:09.064Z,37.27
2023-04-14T16:55:37.537Z,37.15
2023-04-14T16:58:06.018Z,37.48
2023-04-14T17:00:34.503Z,37.41
2023-04-14T17:03:04.158Z,37.02
2023-04-14T17:05:32.867Z,37.29
2023-04-14T17:08:00.906Z,37.22
2023-04-14T17:10:29.774Z,37.46
2023-04-14T17:12:58.162Z,37.63
2023-04-14T17:15:25.973Z,37.57
2023-04-14T17:17:54.268Z,36.97
2023-04-14T17:20:24.329Z,37.20
2023-04-14T17:22:53.740Z,37.04
2023-04-14T17:25:22.753Z,37.50
2023-04-14T17:27:51.162Z,37.17
2023-04-14T17:30:19.772Z,37.26
2023-04-14T17:32:48.871Z,37.24
2023-04-14T17:35:17.730Z,37.23
2023-04-14T17:37:47.487Z,37.38
2023-04-14T17:40:15.922Z,37.30
2023-04-14T17:42:44.229Z,37.42
2023-04-14T17:45:13.319Z,37.82
2023-04-14T17:47:41.715Z,37.53
2023-04-14T17:50:11.448Z,37.88
2023-04-14T17:52:39.816Z,37.94
2023-04-14T17:55:10.608Z,37.64
2023-04-14T17:57:39.798Z,37.70
2023-04-14T18:00:09.977Z,37.89
2023-04-14T18:02:39.709Z,37.80
2023-04-14T18:05:08.673Z,38.35
2023-04-14T18:07:38.053Z,38.07
2023-04-14T18:10:08.246Z,38.22
2023-04-14T18:12:37.777Z,38.50
2023-04-14T18:15:06.584Z,38.84
2023-04-14T18:17:36.717Z,39.06
2023-04-14T18:20:06.128Z,39.04
2023-04-14T18:22:34.248Z,39.03
2023-04-14T18:25:02.531Z,39.34
2023-04-14T18:30:03.366Z,39.65
2023-04-14T18:32:31.998Z,39.91
2023-04-14T18:35:00.011Z,40.06
2023-04-14T18:37:28.267Z,39.80
2023-04-14T18:39:56.739Z,40.34
2023-04-14T18:42:24.855Z,40.36
2023-04-14T18:44:54.084Z,40.62
2023-04-14T18:47:23.362Z,40.89
2023-04-14T18:49:51.835Z,40.93
2023-04-14T18:52:20.302Z,40.70
2023-04-14T18:54:48.328Z,40.81
2023-04-14T18:57:16.491Z,41.02
2023-04-14T18:59:44.985Z,41.08
2023-04-14T19:02:13.863Z,41.11
2023-04-14T19:04:43.683Z,41.24
2023-04-14T19:07:11.992Z,40.94
2023-04-14T19:09:40.145Z,41.08
2023-04-14T19:12:15.538Z,41.23
2023-04-14T19:14:53.609Z,41.37
2023-04-14T19:17:21.288Z,41.00
2023-04-14T19:19:50.461Z,41.47
2023-04-14T19:22:18.571Z,41.54
2023-04-14T19:24:46.270Z,41.85
2023-04-14T19:27:13.968Z,42.24
2023-04-14T19:29:42.058Z,42.89
2023-04-14T19:32:09.790Z,42.62
2023-04-14T19:34:37.627Z,42.66
2023-04-14T19:37:06.787Z,42.97
2023-04-14T19:39:34.624Z,42.56
2023-04-14T19:42:03.254Z,42.95
2023-04-14T19:44:31.260Z,42.87
2023-04-14T19:46:59.014Z,42.90
2023-04-14T19:49:26.993Z,43.23
2023-04-14T19:51:55.022Z,43.17
2023-04-14T19:54:24.439Z,42.81
2023-04-14T19:56:52.268Z,42.89
2023-04-14T19:59:21.048Z,43.25
2023-04-14T20:01:51.510Z,43.59
2023-04-14T20:04:20.663Z,43.86
2023-04-14T20:06:48.693Z,43.73
2023-04-14T20:09:16.834Z,44.25
2023-04-14T20:11:46.132Z,44.46
2023-04-14T20:14:13.871Z,43.81
2023-04-14T20:16:42.634Z,44.03
2023-04-14T20:19:10.983Z,44.32
2023-04-14T20:21:39.596Z,43.76
2023-04-14T20:24:07.597Z,43.93
2023-04-14T20:26:35.496Z,44.55
2023-04-14T20:29:05.283Z,44.34
2023-04-14T20:31:33.195Z,44.13
2023-04-14T20:34:01.144Z,44.37
2023-04-14T20:36:31.569Z,44.75
2023-04-14T20:38:59.445Z,44.61
2023-04-14T20:41:27.516Z,44.19
2023-04-14T20:43:55.173Z,44.86
2023-04-14T20:46:24.450Z,44.85
2023-04-14T20:48:52.460Z,44.85
2023-04-14T20:51:20.176Z,45.07
2023-04-14T20:53:47.817Z,44.34
2023-04-14T20:56:15.906Z,44.56
2023-04-14T20:58:43.629Z,44.92
2023-04-14T21:01:11.357Z,44.45
2023-04-14T21:03:40.794Z,44.22
2023-04-14T21:06:08.549Z,44.98
2023-04-14T21:08:36.204Z,45.00
2023-04-14T21:11:16.990Z,45.40
2023-04-14T21:15:31.036Z,45.80
2023-04-14T21:16:35.272Z,45.57
2023-04-14T21:19:05.436Z,45.57
2023-04-14T21:21:34.170Z,45.93
2023-04-14T21:24:03.525Z,45.84
2023-04-14T21:26:31.286Z,45.65
2023-04-14T21:28:59.053Z,46.05
2023-04-14T21:31:27.586Z,45.67
2023-04-14T21:33:55.322Z,46.04
2023-04-14T21:36:24.450Z,46.54
2023-04-14T21:38:52.668Z,46.11
2023-04-14T21:41:20.909Z,45.96
2023-04-14T21:43:48.577Z,46.47
2023-04-14T21:46:16.713Z,46.64
2023-04-14T21:48:44.462Z,46.20
2023-04-14T21:53:42.461Z,45.87
2023-04-14T21:56:12.751Z,45.01
2023-04-14T21:58:40.667Z,45.80
2023-04-14T22:01:10.186Z,45.84
2023-04-14T22:03:40.605Z,45.80
2023-04-14T22:06:10.308Z,45.96
2023-04-14T22:08:38.967Z,46.62
2023-04-14T22:11:08.506Z,45.92
2023-04-14T22:13:36.525Z,45.97
2023-04-14T22:16:04.253Z,45.89
2023-04-14T22:18:32.237Z,46.75
2023-04-14T22:21:00.268Z,46.55
2023-04-14T22:23:28.561Z,47.08
2023-04-14T22:25:56.354Z,47.22
2023-04-14T22:28:25.918Z,46.65
2023-04-14T22:30:53.754Z,46.90
2023-04-14T22:33:21.464Z,46.95
2023-04-14T22:35:51.001Z,47.15
2023-04-14T22:38:18.680Z,46.74
2023-04-14T22:40:46.607Z,47.29
2023-04-14T22:43:14.596Z,46.84
2023-04-14T22:45:43.677Z,47.25
2023-04-14T22:48:11.694Z,47.37
2023-04-14T22:50:40.466Z,47.93
2023-04-14T22:53:08.281Z,47.60
2023-04-14T22:55:36.144Z,47.73
2023-04-14T22:58:04.357Z,47.82
2023-04-14T23:00:32.083Z,47.87
2023-04-14T23:03:01.185Z,47.74
2023-04-14T23:05:29.876Z,47.89
2023-04-14T23:07:57.547Z,48.53
2023-04-14T23:10:25.440Z,48.69
2023-04-14T23:12:53.376Z,48.45
2023-04-14T23:15:21.061Z,49.08
2023-04-14T23:17:48.951Z,48.51
2023-04-14T23:20:18.198Z,48.61
2023-04-14T23:22:45.898Z,48.72
2023-04-14T23:25:13.750Z,49.10
2023-04-14T23:27:41.769Z,49.27
2023-04-14T23:30:10.575Z,49.54
2023-04-14T23:32:38.343Z,49.66
2023-04-14T23:35:07.515Z,49.11
2023-04-14T23:37:37.189Z,49.81
2023-04-14T23:40:06.097Z,48.47
2023-04-14T23:42:34.851Z,49.15
2023-04-14T23:45:02.615Z,48.77
2023-04-14T23:47:30.617Z,49.35
2023-04-14T23:49:58.661Z,49.75
2023-04-14T23:52:27.034Z,49.85
2023-04-14T23:54:56.400Z,50.18
2023-04-14T23:57:24.781Z,49.99
2023-04-14T23:59:52.902Z,49.89
